Lockwood, Missouri
Current Conditions -  °F | °C
As of 10:52 AM on Saturday 22 Nov 2014 (Local Time) from KSGF Reporting Station
Broken Clouds Broken Clouds  
Wind Chill: 56°   Ceiling: 7500
Heat Index: 56°   Visibility: 10mi
Dew Point: 49°   Wind: 15mph
Humidity: 77%   Direction: 180°S
Pressure: 30.04"   Gusts: NA
Location:  37.39°N, 93.95°W
Report Text: KSGF 221652Z 18013KT 10SM FEW017 BKN075 BKN100 13/09 A3004 RMK AO2 RAE00 SLP172 P0001 T01330094
Loading
Personal Weather Stations






























Interactive Weather Map New forecast layout! Learn more

10-Day Weather Forecast

Advertisements
Track Severe Weather on mobile